Coffman Cove, AK (99918)

9:29 PM AKST on February 23, 2017 (GMT -0900)
MU33KX | | Change Station

Elev 36 ft 56.11 °N, 133.12 °W | Updated 5 minutes ago

Clear
Clear
29.0 °F
Feels Like 29 °F
N
1.0
Wind Variable Wind from NE
Gusts 1.0 mph

Today
High -- | Low -- °F
--% Chance of Precip.
Yesterday
High -- | Low -- °F
Precip. -- in
Pressure 30.35 in
Visibility 10.0 miles
Clouds Clear
Windchill 29 °F
Dew Point 23 °F
Humidity 78%
Rainfall 0.00 in
Snow Depth Not available.
6:56 AM 5:13 PM
Waning Crescent, 6% visible
METAR PAKW 240553Z AUTO 04003KT 10SM CLR 01/M05 A3035 RMK SLP277 T00061050 10039 21006 53002 TSNO VIA AUTODIAL
Pressure 30.35 in
Visibility 10.0 miles
Clouds Clear
Windchill 29 °F
Dew Point 23 °F
Humidity 78%
Rainfall 0.00 in
Snow Depth Not available.
6:56 AM 5:13 PM
Waning Crescent, 6% visible
METAR PAKW 240553Z AUTO 04003KT 10SM CLR 01/M05 A3035 RMK SLP277 T00061050 10039 21006 53002 TSNO VIA AUTODIAL

Get Your Daily Forecast Email!

Thanks for signing up!

Be on the lookout for a verification email in your inbox.

You'll start receiving the daily forecast at 8 AM.

×

10-Day Weather Forecast

Almanac

Astronomy

Feb. 23, 2017 Rise Set
Actual Time
Civil Twilight
Nautical Twilight
Astronomical Twilight
Moon
Length of Visible Light
Length of Day
Tomorrow will be .
, % of the Moon is Illuminated

Today's Extremes

State Highs State Lows

Community

WunderPhotos

Upload Photos

1,962,540 photos uploaded!

WunderBlog® & News

Nearby

Air Quality

  Air Quality AQ Index Pollutant
Not available.

Snow Depth

Station Depth Elevation

Earthquake Activity

City Distance Mag. Time & Date
Minimum magnitude displayed is 2.5.

Coastal Water Temperatures

Place Temperature

Stations

Nearby Weather Stations

Station Location Temp. Windchill Dew Point Humidity Wind Precip. Elev Updated Type
                   

Watches & Warnings

There are currently no watches in effect.